createdAt,value
2022-11-07T00:01:31.253Z,62.81
2022-11-07T00:03:57.663Z,62.36
2022-11-07T00:06:24.090Z,61.86
2022-11-07T00:08:53.922Z,59.99
2022-11-07T00:11:21.807Z,60.90
2022-11-07T00:13:48.194Z,60.06
2022-11-07T00:16:14.662Z,59.40
2022-11-07T00:18:41.084Z,58.72
2022-11-07T00:21:09.735Z,59.11
2022-11-07T00:23:39.061Z,57.67
2022-11-07T00:26:12.284Z,58.72
2022-11-07T00:28:41.324Z,58.58
2022-11-07T00:31:09.671Z,59.41
2022-11-07T00:33:36.349Z,57.28
2022-11-07T00:36:02.799Z,57.91
2022-11-07T00:38:29.436Z,57.86
2022-11-07T00:40:57.925Z,57.91
2022-11-07T00:43:25.151Z,57.99
2022-11-07T00:45:51.966Z,59.34
2022-11-07T00:48:18.419Z,58.44
2022-11-07T00:50:45.109Z,58.23
2022-11-07T00:53:11.969Z,59.32
2022-11-07T00:55:38.600Z,58.50
2022-11-07T00:58:08.650Z,58.65
2022-11-07T01:00:39.172Z,59.58
2022-11-07T01:03:24.219Z,58.86
2022-11-07T01:06:02.051Z,60.44
2022-11-07T01:08:29.294Z,60.02
2022-11-07T01:10:56.201Z,58.91
2022-11-07T01:13:23.422Z,59.10
2022-11-07T01:15:50.087Z,61.07
2022-11-07T01:18:16.665Z,60.29
2022-11-07T01:20:43.110Z,60.51
2022-11-07T01:23:10.159Z,60.38
2022-11-07T01:25:40.159Z,61.18
2022-11-07T01:28:07.738Z,61.00
2022-11-07T01:30:38.191Z,61.93
2022-11-07T01:33:04.613Z,61.62
2022-11-07T01:35:32.739Z,61.25
2022-11-07T01:37:59.162Z,62.07
2022-11-07T01:40:25.645Z,62.00
2022-11-07T01:42:52.032Z,62.44
2022-11-07T01:45:24.685Z,62.20
2022-11-07T01:48:00.766Z,63.31
2022-11-07T01:50:27.794Z,64.00
2022-11-07T01:52:56.293Z,64.28
2022-11-07T01:55:28.395Z,64.74
2022-11-07T01:58:05.698Z,64.73
2022-11-07T02:00:33.854Z,64.56
2022-11-07T02:03:09.472Z,65.42
2022-11-07T02:05:44.296Z,66.76
2022-11-07T02:08:11.928Z,67.02
2022-11-07T02:10:40.332Z,67.49
2022-11-07T02:13:07.429Z,68.15
2022-11-07T02:15:35.729Z,68.31
2022-11-07T02:18:03.469Z,67.74
2022-11-07T02:20:29.981Z,68.57
2022-11-07T02:22:57.671Z,68.02
2022-11-07T02:25:24.177Z,66.90
2022-11-07T02:27:57.569Z,67.26
2022-11-07T02:30:27.825Z,66.34
2022-11-07T02:32:54.254Z,65.31
2022-11-07T02:35:40.807Z,64.83
2022-11-07T02:38:45.122Z,66.45
2022-11-07T02:41:19.101Z,65.37
2022-11-07T02:43:51.601Z,67.25
2022-11-07T02:46:18.441Z,68.19
2022-11-07T02:48:50.767Z,68.66
2022-11-07T02:51:25.632Z,67.84
2022-11-07T02:53:53.220Z,67.46
2022-11-07T02:56:20.286Z,67.82
2022-11-07T02:58:47.189Z,67.52
2022-11-07T03:01:14.159Z,67.54
2022-11-07T03:03:46.136Z,68.29
2022-11-07T03:06:17.210Z,67.91
2022-11-07T03:08:44.235Z,67.70
2022-11-07T03:11:11.408Z,69.06
2022-11-07T03:13:38.520Z,68.69
2022-11-07T03:16:09.947Z,67.71
2022-11-07T03:18:37.209Z,68.60
2022-11-07T03:21:04.965Z,67.97
2022-11-07T03:23:31.901Z,67.85
2022-11-07T03:25:58.295Z,68.62
2022-11-07T03:28:24.866Z,68.45
2022-11-07T03:30:51.990Z,68.52
2022-11-07T03:33:18.604Z,68.06
2022-11-07T03:35:45.056Z,68.54
2022-11-07T03:38:11.722Z,67.69
2022-11-07T03:40:39.486Z,67.89
2022-11-07T03:43:05.897Z,68.02
2022-11-07T03:45:32.284Z,69.29
2022-11-07T03:47:58.685Z,69.32
2022-11-07T03:50:25.104Z,70.64
2022-11-07T03:52:51.557Z,72.42
2022-11-07T03:55:20.857Z,73.49
2022-11-07T03:57:47.428Z,74.07
2022-11-07T04:00:15.781Z,72.68
2022-11-07T04:02:43.006Z,72.97
2022-11-07T04:05:10.578Z,72.23
2022-11-07T04:07:37.081Z,72.94
2022-11-07T04:10:03.863Z,74.22
2022-11-07T04:12:48.902Z,74.47
2022-11-07T04:15:42.148Z,75.36
2022-11-07T04:18:08.574Z,75.34
2022-11-07T04:20:35.176Z,75.64
2022-11-07T04:23:01.575Z,76.54
2022-11-07T04:25:46.549Z,76.39
2022-11-07T04:28:16.182Z,76.54
2022-11-07T04:30:42.561Z,76.73
2022-11-07T04:33:09.453Z,76.43
2022-11-07T04:35:35.835Z,75.67
2022-11-07T04:38:02.253Z,75.78
2022-11-07T04:40:29.809Z,75.05
2022-11-07T04:42:56.625Z,74.35
2022-11-07T04:45:23.323Z,75.02
2022-11-07T04:47:49.872Z,75.10
2022-11-07T04:50:19.662Z,74.30
2022-11-07T04:52:47.450Z,74.63
2022-11-07T04:55:26.797Z,75.33
2022-11-07T04:57:53.542Z,74.85
2022-11-07T05:00:20.276Z,75.43
2022-11-07T05:02:56.112Z,76.22
2022-11-07T05:05:22.672Z,75.47
2022-11-07T05:07:49.220Z,76.64
2022-11-07T05:10:18.691Z,77.39
2022-11-07T05:12:45.191Z,77.67
2022-11-07T05:15:11.575Z,78.18
2022-11-07T05:17:37.977Z,77.61
2022-11-07T05:20:04.835Z,77.82
2022-11-07T05:22:55.129Z,78.13
2022-11-07T05:25:22.587Z,77.90
2022-11-07T05:27:48.980Z,78.35
2022-11-07T05:30:15.384Z,78.29
2022-11-07T05:33:11.955Z,78.90
2022-11-07T05:35:54.107Z,79.29
2022-11-07T05:38:50.076Z,79.85
2022-11-07T05:41:18.245Z,80.42
2022-11-07T05:43:44.734Z,80.07
2022-11-07T05:46:12.346Z,80.69
2022-11-07T05:48:45.544Z,80.54
2022-11-07T05:51:11.943Z,80.82
2022-11-07T05:53:38.422Z,80.08
2022-11-07T05:56:05.072Z,80.29
2022-11-07T05:58:31.504Z,80.54
2022-11-07T06:01:04.385Z,80.19
2022-11-07T06:03:34.839Z,81.29
2022-11-07T06:06:02.320Z,81.82
2022-11-07T06:08:28.724Z,82.49
2022-11-07T06:10:55.203Z,82.41
2022-11-07T06:13:21.605Z,81.93
2022-11-07T06:15:48.042Z,82.21
2022-11-07T06:18:17.946Z,83.31
2022-11-07T06:21:25.941Z,84.31
2022-11-07T06:23:52.242Z,85.08
2022-11-07T06:26:18.642Z,84.16
2022-11-07T06:28:45.162Z,85.22
2022-11-07T06:31:11.641Z,85.90
2022-11-07T06:33:41.410Z,86.32
2022-11-07T06:36:10.490Z,86.53
2022-11-07T06:38:37.895Z,86.54
2022-11-07T06:41:09.389Z,87.46
2022-11-07T06:43:35.916Z,87.16
2022-11-07T06:46:05.280Z,87.22
2022-11-07T06:48:31.725Z,87.48
2022-11-07T06:51:20.216Z,87.01
2022-11-07T06:53:46.637Z,86.44
2022-11-07T06:56:15.716Z,86.67
2022-11-07T06:58:42.436Z,87.85
2022-11-07T07:01:13.627Z,87.48
2022-11-07T07:03:41.186Z,88.85
2022-11-07T07:06:15.014Z,88.01
2022-11-07T07:08:41.974Z,87.34
2022-11-07T07:11:28.740Z,87.37
2022-11-07T07:14:10.237Z,87.41
2022-11-07T07:16:38.265Z,86.50
2022-11-07T07:19:11.984Z,86.35
2022-11-07T07:21:51.661Z,86.07
2022-11-07T07:24:28.312Z,86.32
2022-11-07T07:26:59.771Z,85.62
2022-11-07T07:29:26.234Z,85.46
2022-11-07T07:32:02.711Z,84.82
2022-11-07T07:34:42.120Z,85.01
2022-11-07T07:37:09.406Z,84.89
2022-11-07T07:39:35.848Z,84.70
2022-11-07T07:42:07.446Z,84.45
2022-11-07T07:44:34.396Z,84.16
2022-11-07T07:47:00.934Z,83.86
2022-11-07T07:49:27.442Z,84.71
2022-11-07T07:51:54.231Z,84.84
2022-11-07T07:54:20.633Z,85.14
2022-11-07T07:56:49.027Z,85.07
2022-11-07T07:59:15.554Z,84.08
2022-11-07T08:01:42.031Z,83.99
2022-11-07T08:04:08.552Z,84.76
2022-11-07T08:06:37.054Z,84.25
2022-11-07T08:09:04.540Z,84.16
2022-11-07T08:11:37.866Z,83.50
2022-11-07T08:14:20.788Z,83.76
2022-11-07T08:16:55.465Z,82.37
2022-11-07T08:19:25.022Z,81.68
2022-11-07T08:21:51.439Z,81.30
2022-11-07T08:24:17.937Z,80.21
2022-11-07T08:26:50.181Z,80.73
2022-11-07T08:29:16.676Z,80.88
2022-11-07T08:31:43.136Z,79.90
2022-11-07T08:34:13.579Z,80.62
2022-11-07T08:36:44.285Z,79.09
2022-11-07T08:39:10.846Z,78.22
2022-11-07T08:41:37.286Z,76.23
2022-11-07T08:44:03.764Z,75.50
2022-11-07T08:46:41.444Z,75.24
2022-11-07T08:49:07.829Z,72.95
2022-11-07T08:51:34.212Z,73.13
2022-11-07T08:54:00.644Z,72.63
2022-11-07T08:56:47.961Z,73.57
2022-11-07T08:59:15.191Z,73.37
2022-11-07T09:02:39.114Z,72.76
2022-11-07T09:04:43.757Z,72.22
2022-11-07T09:07:10.228Z,72.29
2022-11-07T09:09:46.714Z,74.64
2022-11-07T09:12:13.021Z,72.64
2022-11-07T09:14:39.441Z,72.42
2022-11-07T09:17:05.835Z,71.53
2022-11-07T09:19:32.217Z,69.39
2022-11-07T09:22:12.972Z,69.73
2022-11-07T09:24:39.413Z,69.59
2022-11-07T09:27:05.960Z,68.96
2022-11-07T09:29:32.505Z,68.05
2022-11-07T09:32:02.469Z,68.46
2022-11-07T09:34:39.459Z,68.12
2022-11-07T09:37:05.850Z,67.66
2022-11-07T09:39:32.528Z,66.71
2022-11-07T09:42:14.084Z,64.87
2022-11-07T09:44:40.993Z,65.98
2022-11-07T09:47:23.270Z,67.26
2022-11-07T09:49:52.161Z,66.05
2022-11-07T09:52:26.072Z,66.35
2022-11-07T09:55:02.701Z,66.01
2022-11-07T09:57:33.394Z,65.90
2022-11-07T10:00:16.701Z,64.71
2022-11-07T10:02:50.067Z,65.83
2022-11-07T10:05:56.724Z,64.23
2022-11-07T10:08:45.514Z,64.96
2022-11-07T10:11:30.102Z,64.58
2022-11-07T10:14:35.091Z,63.82
2022-11-07T10:17:10.039Z,64.55
2022-11-07T10:19:50.344Z,62.25
2022-11-07T10:22:31.478Z,62.99
2022-11-07T10:24:57.821Z,63.30
2022-11-07T10:27:27.144Z,63.44
2022-11-07T10:29:55.959Z,63.16
2022-11-07T10:32:31.310Z,63.53
2022-11-07T10:35:29.361Z,62.63
2022-11-07T10:37:58.500Z,62.46
2022-11-07T10:40:33.529Z,63.47
2022-11-07T10:43:11.481Z,64.09
2022-11-07T10:45:39.168Z,63.64
2022-11-07T10:48:06.089Z,63.17
2022-11-07T10:50:32.594Z,62.61
2022-11-07T10:53:09.750Z,62.43
2022-11-07T10:55:45.275Z,63.48
2022-11-07T10:58:35.698Z,62.89
2022-11-07T11:01:27.361Z,62.62
2022-11-07T11:03:54.246Z,64.38
2022-11-07T11:06:29.009Z,63.46
2022-11-07T11:08:55.687Z,61.56
2022-11-07T11:11:22.028Z,63.36
2022-11-07T11:13:49.185Z,61.60
2022-11-07T11:16:27.048Z,62.19
2022-11-07T11:18:59.057Z,60.89
2022-11-07T11:21:25.717Z,63.18
2022-11-07T11:23:54.292Z,62.32
2022-11-07T11:26:40.355Z,61.61
2022-11-07T11:29:41.637Z,61.78
2022-11-07T11:32:41.121Z,61.25
2022-11-07T11:35:12.581Z,63.21
2022-11-07T11:38:19.725Z,62.11
2022-11-07T11:41:03.287Z,60.86
2022-11-07T11:43:48.600Z,61.53
2022-11-07T11:46:25.252Z,62.15
2022-11-07T11:49:19.340Z,59.97
2022-11-07T11:52:24.062Z,61.51
2022-11-07T11:54:52.788Z,60.07
2022-11-07T11:57:37.902Z,59.29
2022-11-07T12:00:18.814Z,60.29
2022-11-07T12:02:48.421Z,59.81
2022-11-07T12:05:25.977Z,59.64
2022-11-07T12:08:06.606Z,59.09
2022-11-07T12:10:49.066Z,61.17
2022-11-07T12:13:37.667Z,61.54
2022-11-07T12:16:41.760Z,61.58
2022-11-07T12:19:31.000Z,61.17
2022-11-07T12:22:35.444Z,59.37
2022-11-07T12:25:27.746Z,61.61
2022-11-07T12:28:04.912Z,59.64
2022-11-07T12:31:03.242Z,60.69
2022-11-07T12:34:09.373Z,61.08
2022-11-07T12:37:15.565Z,60.11
2022-11-07T12:40:33.911Z,60.17
2022-11-07T12:43:50.310Z,60.60
2022-11-07T12:46:51.742Z,60.09
2022-11-07T12:49:36.600Z,59.90
2022-11-07T12:52:24.573Z,58.62
2022-11-07T12:55:31.013Z,58.10
2022-11-07T12:57:59.427Z,58.79
2022-11-07T13:00:30.248Z,58.96
2022-11-07T13:03:39.918Z,59.76
2022-11-07T13:06:22.768Z,57.27
2022-11-07T13:09:23.047Z,56.66
2022-11-07T13:11:58.918Z,58.90
2022-11-07T13:14:34.337Z,57.65
2022-11-07T13:17:27.595Z,57.56
2022-11-07T13:20:26.308Z,58.62
2022-11-07T13:23:14.047Z,58.23
2022-11-07T13:25:58.823Z,58.59
2022-11-07T13:28:36.591Z,59.16
2022-11-07T13:31:07.819Z,58.88
2022-11-07T13:33:44.693Z,60.22
2022-11-07T13:36:26.039Z,58.72
2022-11-07T13:38:56.736Z,56.82
2022-11-07T13:41:24.294Z,58.08
2022-11-07T13:43:53.135Z,58.46
2022-11-07T13:46:35.668Z,57.57
2022-11-07T13:49:26.150Z,55.60
2022-11-07T13:52:31.548Z,57.43
2022-11-07T13:55:41.518Z,57.81
2022-11-07T13:58:16.647Z,58.52
2022-11-07T14:00:44.418Z,57.95
2022-11-07T14:03:23.653Z,58.08
2022-11-07T14:05:56.732Z,57.44
2022-11-07T14:08:31.271Z,57.88
2022-11-07T14:10:58.935Z,58.42
2022-11-07T14:13:30.264Z,59.05
2022-11-07T14:15:59.538Z,59.02
2022-11-07T14:18:31.846Z,57.19
2022-11-07T14:21:39.856Z,58.57
2022-11-07T14:24:26.811Z,58.10
2022-11-07T14:27:05.493Z,58.73
2022-11-07T14:29:32.549Z,59.45
2022-11-07T14:32:01.499Z,59.75
2022-11-07T14:34:28.647Z,60.59
2022-11-07T14:37:01.171Z,59.19
2022-11-07T14:39:31.504Z,59.91
2022-11-07T14:42:00.133Z,59.74
2022-11-07T14:44:54.883Z,60.56
2022-11-07T14:47:26.120Z,60.78
2022-11-07T14:49:54.325Z,59.22
2022-11-07T14:52:25.517Z,59.38
2022-11-07T14:55:11.169Z,59.61
2022-11-07T14:57:39.632Z,59.79
2022-11-07T15:00:08.154Z,60.33
2022-11-07T15:02:35.776Z,60.72
2022-11-07T15:05:09.600Z,62.35
2022-11-07T15:07:47.006Z,62.53
2022-11-07T15:10:31.996Z,62.85
2022-11-07T15:13:02.014Z,63.94
2022-11-07T15:15:36.830Z,65.87
2022-11-07T15:18:06.487Z,64.48
2022-11-07T15:20:35.906Z,64.69
2022-11-07T15:23:06.256Z,65.50
2022-11-07T15:25:41.548Z,65.40
2022-11-07T15:28:42.101Z,66.62
2022-11-07T15:31:39.426Z,67.52
2022-11-07T15:34:10.128Z,68.73
2022-11-07T15:36:41.314Z,67.98
2022-11-07T15:39:35.817Z,68.02
2022-11-07T15:42:02.219Z,68.51
2022-11-07T15:44:28.650Z,68.90
2022-11-07T15:46:55.093Z,69.17
2022-11-07T15:49:21.682Z,69.44
2022-11-07T15:52:28.833Z,69.00
2022-11-07T15:55:21.629Z,71.16
2022-11-07T15:57:51.659Z,71.58
2022-11-07T16:00:20.943Z,72.04
2022-11-07T16:02:49.524Z,72.45
2022-11-07T16:05:17.264Z,73.01
2022-11-07T16:07:53.912Z,73.83
2022-11-07T16:10:25.997Z,73.99
2022-11-07T16:12:53.694Z,74.13
2022-11-07T16:15:25.744Z,73.24
2022-11-07T16:17:52.213Z,73.42
2022-11-07T16:20:21.504Z,73.42
2022-11-07T16:22:49.362Z,73.34
2022-11-07T16:25:24.879Z,73.65
2022-11-07T16:28:32.678Z,74.71
2022-11-07T16:31:05.382Z,74.84
2022-11-07T16:33:31.882Z,74.85
2022-11-07T16:36:07.657Z,74.29
2022-11-07T16:38:44.178Z,74.81
2022-11-07T16:41:12.006Z,74.43
2022-11-07T16:43:39.586Z,74.72
2022-11-07T16:46:19.999Z,75.11
2022-11-07T16:48:49.431Z,74.62
2022-11-07T16:51:21.533Z,73.88
2022-11-07T16:53:48.369Z,72.95
2022-11-07T16:56:39.868Z,72.76
2022-11-07T16:59:18.301Z,71.27
2022-11-07T17:01:44.982Z,71.45
2022-11-07T17:04:11.486Z,72.67
2022-11-07T17:06:43.341Z,72.33
2022-11-07T17:09:13.656Z,71.39
2022-11-07T17:11:40.244Z,72.13
2022-11-07T17:14:06.671Z,73.51
2022-11-07T17:16:36.491Z,74.34
2022-11-07T17:19:04.796Z,74.77
2022-11-07T17:21:43.682Z,75.90
2022-11-07T17:24:10.429Z,76.00
2022-11-07T17:26:38.733Z,77.31
2022-11-07T17:29:06.993Z,78.00
2022-11-07T17:31:33.506Z,76.05
2022-11-07T17:33:59.907Z,76.46
2022-11-07T17:36:45.852Z,78.61
2022-11-07T17:39:16.129Z,80.15
2022-11-07T17:41:45.033Z,81.14
2022-11-07T17:44:12.103Z,81.46
2022-11-07T17:46:47.862Z,80.15
2022-11-07T17:49:17.790Z,79.62
2022-11-07T17:51:44.432Z,81.04
2022-11-07T17:54:13.285Z,80.22
2022-11-07T17:56:40.623Z,79.83
2022-11-07T17:59:10.567Z,80.65
2022-11-07T18:01:38.343Z,80.85
2022-11-07T18:04:06.515Z,81.37
2022-11-07T18:06:38.848Z,80.64
2022-11-07T18:09:06.719Z,80.74
2022-11-07T18:11:34.995Z,81.37
2022-11-07T18:14:03.032Z,81.69
2022-11-07T18:16:32.723Z,81.88
2022-11-07T18:19:00.908Z,81.50
2022-11-07T18:21:27.840Z,81.57
2022-11-07T18:23:54.328Z,80.84
2022-11-07T18:26:30.145Z,82.83
2022-11-07T18:29:00.093Z,82.71
2022-11-07T18:31:26.531Z,83.01
2022-11-07T18:33:58.080Z,83.07
2022-11-07T18:36:24.965Z,83.40
2022-11-07T18:38:51.372Z,83.89
2022-11-07T18:41:45.902Z,83.88
2022-11-07T18:44:13.133Z,84.16
2022-11-07T18:46:40.039Z,83.94
2022-11-07T18:49:06.539Z,83.27
2022-11-07T18:51:34.193Z,82.19
2022-11-07T18:54:02.736Z,82.67
2022-11-07T18:56:29.380Z,83.02
2022-11-07T18:58:56.252Z,83.40
2022-11-07T19:01:28.020Z,84.32
2022-11-07T19:03:56.567Z,83.35
2022-11-07T19:06:25.070Z,83.51
2022-11-07T19:08:51.638Z,83.40
2022-11-07T19:11:21.756Z,84.93
2022-11-07T19:13:49.200Z,86.71
2022-11-07T19:16:17.602Z,87.33
2022-11-07T19:18:49.189Z,86.28
2022-11-07T19:21:19.742Z,88.59
2022-11-07T19:23:47.317Z,89.19
2022-11-07T19:26:14.212Z,89.95
2022-11-07T19:28:40.891Z,89.42
2022-11-07T19:31:10.718Z,89.46
2022-11-07T19:33:37.160Z,88.97
2022-11-07T19:36:06.609Z,88.59
2022-11-07T19:38:33.299Z,87.82
2022-11-07T19:41:05.614Z,87.97
2022-11-07T19:43:32.756Z,89.80
2022-11-07T19:45:59.246Z,89.41
2022-11-07T19:48:25.817Z,88.83
2022-11-07T19:50:52.335Z,88.55
2022-11-07T19:53:19.037Z,87.84
2022-11-07T19:55:45.681Z,88.59
2022-11-07T19:58:12.134Z,90.45
2022-11-07T20:00:38.671Z,89.59
2022-11-07T20:03:05.377Z,89.53
2022-11-07T20:05:34.283Z,90.81
2022-11-07T20:08:15.106Z,90.39
2022-11-07T20:10:46.204Z,90.93
2022-11-07T20:13:12.634Z,89.76
2022-11-07T20:15:40.167Z,90.27
2022-11-07T20:18:06.622Z,90.91
2022-11-07T20:20:33.080Z,89.92
2022-11-07T20:23:03.625Z,90.65
2022-11-07T20:25:30.051Z,90.11
2022-11-07T20:27:56.572Z,89.64
2022-11-07T20:30:22.971Z,90.40
2022-11-07T20:32:49.349Z,89.74
2022-11-07T20:35:15.838Z,90.18
2022-11-07T20:37:44.214Z,90.29
2022-11-07T20:40:11.171Z,91.11
2022-11-07T20:42:37.560Z,89.83
2022-11-07T20:45:04.201Z,90.42
2022-11-07T20:47:30.583Z,90.98
2022-11-07T20:49:56.963Z,91.03
2022-11-07T20:52:23.561Z,91.31
2022-11-07T20:54:50.981Z,92.20
2022-11-07T20:57:18.133Z,92.70
2022-11-07T20:59:45.375Z,91.70
2022-11-07T21:02:12.949Z,92.71
2022-11-07T21:04:56.145Z,92.90
2022-11-07T21:07:25.851Z,92.73
2022-11-07T21:09:52.477Z,92.72
2022-11-07T21:12:18.919Z,92.83
2022-11-07T21:14:45.908Z,92.33
2022-11-07T21:17:12.482Z,92.44
2022-11-07T21:19:38.868Z,92.06
2022-11-07T21:22:07.468Z,92.96
2022-11-07T21:24:33.844Z,92.57
2022-11-07T21:27:00.315Z,92.11
2022-11-07T21:29:29.831Z,91.33
2022-11-07T21:31:56.900Z,91.28
2022-11-07T21:34:23.865Z,91.71
2022-11-07T21:36:50.332Z,91.65
2022-11-07T21:39:17.390Z,92.53
2022-11-07T21:41:43.822Z,92.68
2022-11-07T21:44:12.172Z,92.18
2022-11-07T21:46:38.792Z,92.95
2022-11-07T21:49:06.221Z,93.09
2022-11-07T21:51:35.223Z,93.42
2022-11-07T21:54:03.602Z,92.91
2022-11-07T21:56:36.266Z,92.38
2022-11-07T21:59:05.820Z,93.03
2022-11-07T22:01:34.778Z,92.31
2022-11-07T22:04:07.302Z,93.16
2022-11-07T22:06:37.864Z,93.13
2022-11-07T22:09:05.245Z,92.10
2022-11-07T22:11:32.042Z,92.41
2022-11-07T22:13:58.472Z,92.11
2022-11-07T22:16:25.096Z,91.70
2022-11-07T22:18:51.672Z,92.49
2022-11-07T22:21:20.983Z,92.74
2022-11-07T22:23:48.278Z,92.91
2022-11-07T22:26:20.531Z,92.88
2022-11-07T22:28:47.663Z,92.80
2022-11-07T22:31:17.018Z,92.84
2022-11-07T22:33:43.781Z,92.94
2022-11-07T22:36:11.515Z,93.05
2022-11-07T22:38:38.981Z,93.57
2022-11-07T22:41:07.374Z,93.82
2022-11-07T22:43:34.484Z,94.07
2022-11-07T22:46:06.032Z,93.67
2022-11-07T22:48:33.233Z,93.93
2022-11-07T22:51:19.829Z,93.54
2022-11-07T22:53:46.621Z,93.99
2022-11-07T22:56:16.082Z,93.47
2022-11-07T22:58:43.835Z,94.03
2022-11-07T23:01:19.126Z,93.74
2022-11-07T23:03:46.762Z,94.12
2022-11-07T23:06:13.265Z,94.69
2022-11-07T23:08:39.921Z,94.81
2022-11-07T23:14:05.011Z,94.53
2022-11-07T23:16:36.741Z,95.38
2022-11-07T23:19:07.617Z,96.34
2022-11-07T23:21:35.181Z,96.92
2022-11-07T23:24:01.970Z,96.00
2022-11-07T23:26:36.029Z,95.28
2022-11-07T23:29:10.790Z,96.12
2022-11-07T23:31:41.679Z,95.94
2022-11-07T23:34:08.258Z,95.62
2022-11-07T23:36:35.282Z,94.88
2022-11-07T23:39:07.000Z,94.46
2022-11-07T23:41:33.880Z,95.08
2022-11-07T23:44:00.380Z,95.03
2022-11-07T23:46:45.615Z,95.08
2022-11-07T23:49:30.394Z,95.13
2022-11-07T23:51:56.841Z,95.17
2022-11-07T23:54:41.866Z,95.30
2022-11-07T23:57:08.247Z,95.41
2022-11-07T23:59:53.870Z,94.35
